createdAt,value
2019-01-04T00:00:00.861Z,304.47
2019-01-04T00:01:00.827Z,304.80
2019-01-04T00:02:00.818Z,304.60
2019-01-04T00:03:00.958Z,304.62
2019-01-04T00:04:00.801Z,304.60
2019-01-04T00:05:00.796Z,304.33
2019-01-04T00:06:00.772Z,304.45
2019-01-04T00:07:00.801Z,304.65
2019-01-04T00:08:00.763Z,304.70
2019-01-04T00:09:00.738Z,304.72
2019-01-04T00:10:00.730Z,305.10
2019-01-04T00:11:00.716Z,304.34
2019-01-04T00:12:00.738Z,304.62
2019-01-04T00:13:00.707Z,305.18
2019-01-04T00:14:00.703Z,304.75
2019-01-04T00:15:00.702Z,304.93
2019-01-04T00:16:00.689Z,305.05
2019-01-04T00:17:00.674Z,305.52
2019-01-04T00:18:01.484Z,305.91
2019-01-04T00:19:01.408Z,305.35
2019-01-04T00:20:00.649Z,304.86
2019-01-04T00:21:00.640Z,305.15
2019-01-04T00:22:00.611Z,304.62
2019-01-04T00:23:00.627Z,305.50
2019-01-04T00:24:00.599Z,304.75
2019-01-04T00:25:00.584Z,305.21
2019-01-04T00:26:00.544Z,305.47
2019-01-04T00:27:00.581Z,305.65
2019-01-04T00:28:00.555Z,304.75
2019-01-04T00:29:00.595Z,305.13
2019-01-04T00:30:00.548Z,305.14
2019-01-04T00:31:00.511Z,305.21
2019-01-04T00:32:01.393Z,304.57
2019-01-04T00:33:00.515Z,304.72
2019-01-04T00:34:00.498Z,304.53
2019-01-04T00:35:00.488Z,304.07
2019-01-04T00:36:00.497Z,304.16
2019-01-04T00:37:00.441Z,303.95
2019-01-04T00:38:00.515Z,304.56
2019-01-04T00:39:07.525Z,304.04
2019-01-04T00:40:08.460Z,303.79
2019-01-04T00:41:08.446Z,303.95
2019-01-04T00:42:08.441Z,304.05
2019-01-04T00:43:08.480Z,303.62
2019-01-04T00:44:09.094Z,303.56
2019-01-04T00:45:08.430Z,304.34
2019-01-04T00:46:08.377Z,304.83
2019-01-04T00:47:08.407Z,303.93
2019-01-04T00:48:07.411Z,304.43
2019-01-04T00:49:07.422Z,304.60
2019-01-04T00:50:08.418Z,304.78
2019-01-04T00:51:08.367Z,304.36
2019-01-04T00:52:08.329Z,304.07
2019-01-04T00:53:00.397Z,304.71
2019-01-04T00:54:00.317Z,304.74
2019-01-04T00:55:08.324Z,304.91
2019-01-04T00:56:07.361Z,304.50
2019-01-04T00:59:01.498Z,303.38
2019-01-04T01:00:01.396Z,304.50
2019-01-04T01:01:01.374Z,304.77
2019-01-04T01:02:01.439Z,304.85
2019-01-04T01:03:01.341Z,305.00
2019-01-04T01:04:01.912Z,304.48
2019-01-04T01:05:01.327Z,304.84
2019-01-04T01:06:01.320Z,304.57
2019-01-04T01:07:01.288Z,304.52
2019-01-04T01:08:01.251Z,304.51
2019-01-04T01:09:01.262Z,304.52
2019-01-04T01:10:01.253Z,304.56
2019-01-04T01:11:01.875Z,304.63
2019-01-04T01:12:01.988Z,304.50
2019-01-04T01:13:01.251Z,304.87
2019-01-04T01:14:01.263Z,305.31
2019-01-04T01:15:01.201Z,305.12
2019-01-04T01:16:01.197Z,304.62
2019-01-04T01:17:01.185Z,305.21
2019-01-04T01:18:01.188Z,304.91
2019-01-04T01:19:01.186Z,305.04
2019-01-04T01:20:01.127Z,305.17
2019-01-04T01:21:01.915Z,305.22
2019-01-04T01:22:01.135Z,305.20
2019-01-04T01:23:01.201Z,304.75
2019-01-04T01:24:01.137Z,305.68
2019-01-04T01:25:01.119Z,305.08
2019-01-04T01:26:01.078Z,305.30
2019-01-04T01:27:01.112Z,305.15
2019-01-04T01:28:01.077Z,305.10
2019-01-04T01:29:01.091Z,305.41
2019-01-04T01:30:01.077Z,304.66
2019-01-04T01:31:01.036Z,305.44
2019-01-04T01:32:01.019Z,305.15
2019-01-04T01:33:01.006Z,304.84
2019-01-04T01:34:01.046Z,305.02
2019-01-04T01:35:00.991Z,305.58
2019-01-04T01:36:00.974Z,304.96
2019-01-04T01:37:08.023Z,305.32
2019-01-04T01:38:09.359Z,305.54
2019-01-04T01:39:08.648Z,305.67
2019-01-04T01:40:08.093Z,306.12
2019-01-04T01:41:08.527Z,305.08
2019-01-04T01:42:01.070Z,306.15
2019-01-04T01:43:00.980Z,306.49
2019-01-04T01:44:00.931Z,305.68
2019-01-04T01:45:00.878Z,306.42
2019-01-04T01:46:00.883Z,306.47
2019-01-04T01:47:00.883Z,306.37
2019-01-04T01:48:00.870Z,307.03
2019-01-04T01:49:00.878Z,306.87
2019-01-04T01:50:00.820Z,306.07
2019-01-04T01:51:00.826Z,306.43
2019-01-04T01:52:00.812Z,306.65
2019-01-04T01:53:00.817Z,306.36
2019-01-04T01:54:00.840Z,306.16
2019-01-04T01:55:00.752Z,305.96
2019-01-04T01:56:00.767Z,306.14
2019-01-04T01:57:00.742Z,305.85
2019-01-04T01:58:00.751Z,305.65
2019-01-04T01:59:00.769Z,305.69
2019-01-04T02:00:09.575Z,305.27
2019-01-04T02:01:00.849Z,305.45
2019-01-04T02:02:00.710Z,305.14
2019-01-04T02:03:00.717Z,305.59
2019-01-04T02:04:00.700Z,305.21
2019-01-04T02:05:00.686Z,305.47
2019-01-04T02:06:00.640Z,305.41
2019-01-04T02:07:00.628Z,305.24
2019-01-04T02:08:00.631Z,305.49
2019-01-04T02:09:00.631Z,304.71
2019-01-04T02:10:00.611Z,304.82
2019-01-04T02:11:00.601Z,304.69
2019-01-04T02:12:00.598Z,305.09
2019-01-04T02:13:00.590Z,305.07
2019-01-04T02:14:00.584Z,304.76
2019-01-04T02:15:00.567Z,305.00
2019-01-04T02:16:00.562Z,304.91
2019-01-04T02:17:00.561Z,305.06
2019-01-04T02:18:00.555Z,304.92
2019-01-04T02:19:00.545Z,304.43
2019-01-04T02:20:00.504Z,304.65
2019-01-04T02:21:00.496Z,305.01
2019-01-04T02:22:00.501Z,304.52
2019-01-04T02:23:00.491Z,304.29
2019-01-04T02:24:00.494Z,304.39
2019-01-04T02:25:00.454Z,304.44
2019-01-04T02:26:00.441Z,304.12
2019-01-04T02:27:00.447Z,304.45
2019-01-04T02:28:00.443Z,304.98
2019-01-04T02:29:00.449Z,304.36
2019-01-04T02:30:00.678Z,304.92
2019-01-04T02:31:00.386Z,304.67
2019-01-04T02:32:00.445Z,304.56
2019-01-04T02:33:00.381Z,304.55
2019-01-04T02:34:00.395Z,304.50
2019-01-04T02:35:00.352Z,304.95
2019-01-04T02:36:00.342Z,304.50
2019-01-04T02:37:00.322Z,304.88
2019-01-04T02:38:00.316Z,304.98
2019-01-04T02:39:00.325Z,305.02
2019-01-04T02:40:00.326Z,304.83
2019-01-04T02:41:00.281Z,305.38
2019-01-04T02:42:00.276Z,305.29
2019-01-04T02:43:00.255Z,304.84
2019-01-04T02:44:00.272Z,305.30
2019-01-04T02:45:00.333Z,304.54
2019-01-04T02:46:00.224Z,305.27
2019-01-04T02:47:00.221Z,304.92
2019-01-04T02:48:00.205Z,305.34
2019-01-04T02:49:00.203Z,305.38
2019-01-04T02:50:00.199Z,305.09
2019-01-04T02:51:00.193Z,305.20
2019-01-04T02:52:00.170Z,304.67
2019-01-04T02:53:00.147Z,304.66
2019-01-04T02:54:00.145Z,304.98
2019-01-04T02:55:00.244Z,304.75
2019-01-04T02:56:00.130Z,304.80
2019-01-04T02:57:00.146Z,304.83
2019-01-04T02:58:00.114Z,305.10
2019-01-04T02:59:00.112Z,304.75
2019-01-04T03:00:00.159Z,304.60
2019-01-04T03:01:00.082Z,304.37
2019-01-04T03:02:00.072Z,304.55
2019-01-04T03:03:00.044Z,305.42
2019-01-04T03:04:00.054Z,305.17
2019-01-04T03:05:00.289Z,305.27
2019-01-04T03:06:00.016Z,304.66
2019-01-04T03:07:00.003Z,304.75
2019-01-04T03:08:00.026Z,304.60
2019-01-04T03:09:00.537Z,304.61
2019-01-04T03:10:00.021Z,304.15
2019-01-04T03:10:59.957Z,304.37
2019-01-04T03:11:59.966Z,304.34
2019-01-04T03:12:59.969Z,305.30
2019-01-04T03:13:59.959Z,304.90
2019-01-04T03:14:59.966Z,304.29
2019-01-04T03:15:59.940Z,304.61
2019-01-04T03:16:59.901Z,304.06
2019-01-04T03:17:59.885Z,304.34
2019-01-04T03:18:59.887Z,304.08
2019-01-04T03:20:00.079Z,304.93
2019-01-04T03:20:59.858Z,304.21
2019-01-04T03:21:59.841Z,304.89
2019-01-04T03:22:59.833Z,304.24
2019-01-04T03:23:59.856Z,304.66
2019-01-04T03:24:59.835Z,304.39
2019-01-04T03:25:59.800Z,304.79
2019-01-04T03:26:59.819Z,304.35
2019-01-04T03:28:06.871Z,304.08
2019-01-04T03:28:59.780Z,304.14
2019-01-04T03:29:59.821Z,304.91
2019-01-04T03:30:59.813Z,304.79
2019-01-04T03:31:59.752Z,304.63
2019-01-04T03:32:59.724Z,304.31
2019-01-04T03:33:59.710Z,304.87
2019-01-04T03:34:59.723Z,304.58
2019-01-04T03:35:59.713Z,303.86
2019-01-04T03:36:59.713Z,304.42
2019-01-04T03:37:59.699Z,304.21
2019-01-04T03:38:59.696Z,304.26
2019-01-04T03:39:59.698Z,304.53
2019-01-04T03:41:08.694Z,304.64
2019-01-04T03:42:06.708Z,304.66
2019-01-04T03:43:07.725Z,304.25
2019-01-04T03:44:08.210Z,304.02
2019-01-04T03:44:59.677Z,304.74
2019-01-04T03:45:59.588Z,304.12
2019-01-04T03:46:59.578Z,304.06
2019-01-04T03:47:59.580Z,304.53
2019-01-04T03:48:59.585Z,304.11
2019-01-04T03:49:59.620Z,303.92
2019-01-04T03:50:59.529Z,304.78
2019-01-04T03:51:59.584Z,304.25
2019-01-04T03:52:59.519Z,303.97
2019-01-04T03:53:59.519Z,304.35
2019-01-04T03:54:59.536Z,304.61
2019-01-04T03:55:59.479Z,304.68
2019-01-04T03:56:59.467Z,304.59
2019-01-04T03:57:59.477Z,304.88
2019-01-04T03:58:59.458Z,304.13
2019-01-04T03:59:59.488Z,305.13
2019-01-04T04:00:59.450Z,304.67
2019-01-04T04:01:59.430Z,304.46
2019-01-04T04:02:59.411Z,305.38
2019-01-04T04:03:59.416Z,305.40
2019-01-04T04:04:59.419Z,304.87
2019-01-04T04:05:59.402Z,304.77
2019-01-04T04:06:59.375Z,304.92
2019-01-04T04:07:59.364Z,304.99
2019-01-04T04:08:59.357Z,304.84
2019-01-04T04:09:59.348Z,304.83
2019-01-04T04:10:59.330Z,304.60
2019-01-04T04:11:59.330Z,305.38
2019-01-04T04:12:59.317Z,304.99
2019-01-04T04:13:59.311Z,304.88
2019-01-04T04:14:59.306Z,305.23
2019-01-04T04:15:59.301Z,305.28
2019-01-04T04:16:59.288Z,305.51
2019-01-04T04:17:59.323Z,304.96
2019-01-04T04:18:59.252Z,304.88
2019-01-04T04:19:59.272Z,305.01
2019-01-04T04:20:59.262Z,304.78
2019-01-04T04:21:59.217Z,304.61
2019-01-04T04:23:06.310Z,304.01
2019-01-04T04:24:07.346Z,305.13
2019-01-04T04:24:59.313Z,304.97
2019-01-04T04:26:06.286Z,305.23
2019-01-04T04:26:59.161Z,304.82
2019-01-04T04:27:59.184Z,304.97
2019-01-04T04:28:59.201Z,304.61
2019-01-04T04:29:59.135Z,304.45
2019-01-04T04:30:59.140Z,304.61
2019-01-04T04:31:59.085Z,305.01
2019-01-04T04:32:59.084Z,304.97
2019-01-04T04:33:59.081Z,304.83
2019-01-04T04:34:59.086Z,304.12
2019-01-04T04:35:59.090Z,304.76
2019-01-04T04:36:59.056Z,305.20
2019-01-04T04:37:59.035Z,305.13
2019-01-04T04:38:59.043Z,304.80
2019-01-04T04:39:59.038Z,304.71
2019-01-04T04:40:59.016Z,304.75
2019-01-04T04:41:59.019Z,304.79
2019-01-04T04:42:59.007Z,304.60
2019-01-04T04:43:58.991Z,305.00
2019-01-04T04:44:58.972Z,304.16
2019-01-04T04:45:58.995Z,304.76
2019-01-04T04:46:58.953Z,304.47
2019-01-04T04:47:58.950Z,304.73
2019-01-04T04:48:58.933Z,304.78
2019-01-04T04:49:58.921Z,304.70
2019-01-04T04:50:58.934Z,304.79
2019-01-04T04:51:58.893Z,304.59
2019-01-04T04:52:59.659Z,304.46
2019-01-04T04:53:58.891Z,304.27
2019-01-04T04:54:58.915Z,304.63
2019-01-04T04:55:58.912Z,304.27
2019-01-04T04:56:58.841Z,304.13
2019-01-04T04:57:58.866Z,304.72
2019-01-04T04:58:58.853Z,304.04
2019-01-04T04:59:58.826Z,304.39
2019-01-04T05:00:58.841Z,304.22
2019-01-04T05:01:58.807Z,304.88
2019-01-04T05:02:58.781Z,304.53
2019-01-04T05:03:58.773Z,304.50
2019-01-04T05:04:58.761Z,304.12
2019-01-04T05:05:58.787Z,304.43
2019-01-04T05:06:58.750Z,304.09
2019-01-04T05:07:58.721Z,304.39
2019-01-04T05:09:07.351Z,304.64
2019-01-04T05:10:06.775Z,304.56
2019-01-04T05:11:05.808Z,304.18
2019-01-04T05:11:58.725Z,304.87
2019-01-04T05:12:58.682Z,304.93
2019-01-04T05:13:58.692Z,304.18
2019-01-04T05:14:58.653Z,304.81
2019-01-04T05:15:58.666Z,304.38
2019-01-04T05:16:58.645Z,304.45
2019-01-04T05:17:58.644Z,304.48
2019-01-04T05:18:58.652Z,304.61
2019-01-04T05:19:58.609Z,304.29
2019-01-04T05:20:58.605Z,304.38
2019-01-04T05:21:58.578Z,304.51
2019-01-04T05:23:00.351Z,304.17
2019-01-04T05:24:00.350Z,304.57
2019-01-04T05:25:00.376Z,304.28
2019-01-04T05:25:58.576Z,304.59
2019-01-04T05:26:58.537Z,304.40
2019-01-04T05:27:58.526Z,304.81
2019-01-04T05:28:58.545Z,304.66
2019-01-04T05:29:58.503Z,304.54
2019-01-04T05:30:58.512Z,304.66
2019-01-04T05:31:58.471Z,304.27
2019-01-04T05:32:58.457Z,304.75
2019-01-04T05:33:58.462Z,304.52
2019-01-04T05:34:58.448Z,304.33
2019-01-04T05:35:58.454Z,304.66
2019-01-04T05:36:58.448Z,304.68
2019-01-04T05:37:58.405Z,304.34
2019-01-04T05:38:58.401Z,304.85
2019-01-04T05:39:58.423Z,305.08
2019-01-04T05:40:58.403Z,305.02
2019-01-04T05:41:59.362Z,304.22
2019-01-04T05:42:58.351Z,304.55
2019-01-04T05:43:58.347Z,304.87
2019-01-04T05:44:58.350Z,305.14
2019-01-04T05:45:58.359Z,304.81
2019-01-04T05:46:58.313Z,305.11
2019-01-04T05:47:58.316Z,305.71
2019-01-04T05:48:58.305Z,305.77
2019-01-04T05:49:58.826Z,305.41
2019-01-04T05:50:58.317Z,305.49
2019-01-04T05:51:58.253Z,306.61
2019-01-04T05:52:58.249Z,305.98
2019-01-04T05:53:58.247Z,306.00
2019-01-04T05:54:58.265Z,306.46
2019-01-04T05:55:58.245Z,306.28
2019-01-04T05:56:58.241Z,306.04
2019-01-04T05:57:58.223Z,306.16
2019-01-04T05:58:58.191Z,306.09
2019-01-04T05:59:58.192Z,305.52
2019-01-04T06:00:58.202Z,306.00
2019-01-04T06:01:58.157Z,305.65
2019-01-04T06:02:58.157Z,305.95
2019-01-04T06:03:58.170Z,306.13
2019-01-04T06:04:58.121Z,306.00
2019-01-04T06:05:58.117Z,306.18
2019-01-04T06:06:58.095Z,305.74
2019-01-04T06:07:58.104Z,305.76
2019-01-04T06:09:06.210Z,306.01
2019-01-04T06:10:06.478Z,306.10
2019-01-04T06:10:58.103Z,306.02
2019-01-04T06:11:58.055Z,307.11
2019-01-04T06:12:58.061Z,306.59
2019-01-04T06:13:58.021Z,306.61
2019-01-04T06:14:57.998Z,306.22
2019-01-04T06:15:58.050Z,306.63
2019-01-04T06:16:58.037Z,306.53
2019-01-04T06:17:58.000Z,305.37
2019-01-04T06:18:57.985Z,305.95
2019-01-04T06:19:57.985Z,305.83
2019-01-04T06:20:58.384Z,306.12
2019-01-04T06:21:57.972Z,305.72
2019-01-04T06:22:57.945Z,305.54
2019-01-04T06:23:57.971Z,305.81
2019-01-04T06:24:57.925Z,306.70
2019-01-04T06:25:57.950Z,306.04
2019-01-04T06:26:57.914Z,306.37
2019-01-04T06:27:57.868Z,306.04
2019-01-04T06:28:57.861Z,306.50
2019-01-04T06:29:57.859Z,306.90
2019-01-04T06:30:57.876Z,306.08
2019-01-04T06:31:57.847Z,306.62
2019-01-04T06:32:57.850Z,306.65
2019-01-04T06:33:57.882Z,305.42
2019-01-04T06:34:57.831Z,306.50
2019-01-04T06:35:57.824Z,306.19
2019-01-04T06:36:57.815Z,305.89
2019-01-04T06:37:57.807Z,305.88
2019-01-04T06:38:57.785Z,306.70
2019-01-04T06:39:57.760Z,306.35
2019-01-04T06:40:57.759Z,306.31
2019-01-04T06:41:57.755Z,306.50
2019-01-04T06:42:57.740Z,306.94
2019-01-04T06:43:57.742Z,306.70
2019-01-04T06:44:57.702Z,306.30
2019-01-04T06:46:05.403Z,306.53
2019-01-04T06:46:57.778Z,306.72
2019-01-04T06:47:57.707Z,306.97
2019-01-04T06:48:57.663Z,306.48
2019-01-04T06:49:57.656Z,307.11
2019-01-04T06:50:57.676Z,307.82
2019-01-04T06:51:57.623Z,307.22
2019-01-04T06:52:57.617Z,306.72
2019-01-04T06:53:57.622Z,307.12
2019-01-04T06:54:57.609Z,306.88
2019-01-04T06:55:57.590Z,307.05
2019-01-04T06:56:57.619Z,307.39
2019-01-04T06:57:57.555Z,307.07
2019-01-04T06:58:57.568Z,307.31
2019-01-04T06:59:57.539Z,307.74
2019-01-04T07:00:57.570Z,307.28
2019-01-04T07:01:57.583Z,307.44
2019-01-04T07:02:57.546Z,307.84
2019-01-04T07:03:57.493Z,308.06
2019-01-04T07:04:57.504Z,308.01
2019-01-04T07:05:57.504Z,307.22
2019-01-04T07:06:57.506Z,307.22
2019-01-04T07:07:59.398Z,307.80
2019-01-04T07:08:57.494Z,308.67
2019-01-04T07:09:57.444Z,307.14
2019-01-04T07:10:57.488Z,307.47
2019-01-04T07:11:57.450Z,308.09
2019-01-04T07:12:57.445Z,307.98
2019-01-04T07:13:57.397Z,307.36
2019-01-04T07:14:57.366Z,307.31
2019-01-04T07:15:57.370Z,307.85
2019-01-04T07:16:57.394Z,307.10
2019-01-04T07:17:57.349Z,306.75
2019-01-04T07:18:57.365Z,306.23
2019-01-04T07:19:57.339Z,306.37
2019-01-04T07:20:57.332Z,307.12
2019-01-04T07:21:57.326Z,306.08
2019-01-04T07:22:57.289Z,307.02
2019-01-04T07:23:57.290Z,306.96
2019-01-04T07:24:57.308Z,307.05
2019-01-04T07:25:57.269Z,306.67
2019-01-04T07:26:57.406Z,307.01
2019-01-04T07:28:00.905Z,307.79
2019-01-04T07:28:57.248Z,306.87
2019-01-04T07:29:57.230Z,307.03
2019-01-04T07:30:57.228Z,306.89
2019-01-04T07:31:57.215Z,307.05
2019-01-04T07:32:57.190Z,307.36
2019-01-04T07:33:57.206Z,307.15
2019-01-04T07:34:57.201Z,306.58
2019-01-04T07:35:57.165Z,306.76
2019-01-04T07:36:57.179Z,307.15
2019-01-04T07:37:57.153Z,306.63
2019-01-04T07:38:57.174Z,307.23
2019-01-04T07:39:57.134Z,306.58
2019-01-04T07:40:57.120Z,307.40
2019-01-04T07:41:57.118Z,307.20
2019-01-04T07:42:57.145Z,306.78
2019-01-04T07:43:57.126Z,305.80
2019-01-04T07:44:57.072Z,306.83
2019-01-04T07:45:57.069Z,306.13
2019-01-04T07:46:57.071Z,306.41
2019-01-04T07:47:57.041Z,306.04
2019-01-04T07:48:57.034Z,306.46
2019-01-04T07:49:57.034Z,306.24
2019-01-04T07:50:57.011Z,306.32
2019-01-04T07:51:57.036Z,306.58
2019-01-04T07:52:57.005Z,306.23
2019-01-04T07:53:56.971Z,306.03
2019-01-04T07:54:56.969Z,306.00
2019-01-04T07:55:56.962Z,306.51
2019-01-04T07:56:56.979Z,306.16
2019-01-04T07:57:56.952Z,306.62
2019-01-04T07:58:56.916Z,306.06
2019-01-04T07:59:56.932Z,306.49
2019-01-04T08:00:56.905Z,306.64
2019-01-04T08:01:56.906Z,306.14
2019-01-04T08:02:56.879Z,306.62
2019-01-04T08:03:56.876Z,306.13
2019-01-04T08:04:56.879Z,306.40
2019-01-04T08:05:56.884Z,306.10
2019-01-04T08:06:56.862Z,306.45
2019-01-04T08:07:57.386Z,306.41
2019-01-04T08:08:56.823Z,306.64
2019-01-04T08:09:56.810Z,306.90
2019-01-04T08:10:56.811Z,306.80
2019-01-04T08:11:56.836Z,306.39
2019-01-04T08:12:56.764Z,306.44
2019-01-04T08:13:56.748Z,307.01
2019-01-04T08:14:56.760Z,306.86
2019-01-04T08:15:56.746Z,306.53
2019-01-04T08:16:56.753Z,306.41
2019-01-04T08:17:56.713Z,306.90
2019-01-04T08:18:56.712Z,306.55
2019-01-04T08:19:56.800Z,306.74
2019-01-04T08:20:56.696Z,306.31
2019-01-04T08:21:56.721Z,306.45
2019-01-04T08:22:56.656Z,305.94
2019-01-04T08:23:56.656Z,306.57
2019-01-04T08:24:56.644Z,305.78
2019-01-04T08:25:56.691Z,306.12
2019-01-04T08:26:56.662Z,306.66
2019-01-04T08:27:56.627Z,305.83
2019-01-04T08:28:56.647Z,305.94
2019-01-04T08:30:03.681Z,305.99
2019-01-04T08:30:56.606Z,305.93
2019-01-04T08:32:03.658Z,304.81
2019-01-04T08:33:03.627Z,305.64
2019-01-04T08:34:04.607Z,306.27
2019-01-04T08:37:18.017Z,304.20
2019-01-04T08:38:24.866Z,305.67
2019-01-04T08:39:25.835Z,305.78
2019-01-04T08:40:25.783Z,305.99
2019-01-04T08:41:17.761Z,305.35
2019-01-04T08:42:25.860Z,305.56
2019-01-04T08:43:26.358Z,305.47
2019-01-04T08:44:17.729Z,305.62
2019-01-04T08:45:17.712Z,305.59
2019-01-04T08:46:25.317Z,305.56
2019-01-04T08:47:17.767Z,305.53
2019-01-04T08:48:17.705Z,305.43
2019-01-04T08:49:25.543Z,305.80
2019-01-04T08:50:24.773Z,304.92
2019-01-04T08:51:17.684Z,305.74
2019-01-04T08:52:17.728Z,305.41
2019-01-04T08:53:34.782Z,305.58
2019-01-04T08:55:57.231Z,305.68
2019-01-04T08:56:57.137Z,305.27
2019-01-04T08:57:57.088Z,306.00
2019-01-04T08:58:57.072Z,305.98
2019-01-04T08:59:57.171Z,305.73
2019-01-04T09:00:57.058Z,305.78
2019-01-04T09:01:57.095Z,305.78
2019-01-04T09:02:57.031Z,305.00
2019-01-04T09:03:57.602Z,305.22
2019-01-04T09:04:58.583Z,305.37
2019-01-04T09:05:57.044Z,305.57
2019-01-04T09:06:56.994Z,305.30
2019-01-04T09:07:57.006Z,306.48
2019-01-04T09:08:56.992Z,305.42
2019-01-04T09:09:56.954Z,305.24
2019-01-04T09:10:56.996Z,304.78
2019-01-04T09:11:56.957Z,305.61
2019-01-04T09:12:56.985Z,305.46
2019-01-04T09:13:56.948Z,305.98
2019-01-04T09:14:56.941Z,306.07
2019-01-04T09:15:56.967Z,305.23
2019-01-04T09:16:56.912Z,306.37
2019-01-04T09:17:57.698Z,306.51
2019-01-04T09:18:56.910Z,306.74
2019-01-04T09:19:56.923Z,306.51
2019-01-04T09:20:56.873Z,306.83
2019-01-04T09:21:56.855Z,306.12
2019-01-04T09:22:56.903Z,306.40
2019-01-04T09:23:56.831Z,306.09
2019-01-04T09:24:56.817Z,306.17
2019-01-04T09:25:56.827Z,306.19
2019-01-04T09:26:56.832Z,306.61
2019-01-04T09:27:56.834Z,305.89
2019-01-04T09:28:56.773Z,306.03
2019-01-04T09:29:57.526Z,305.25
2019-01-04T09:30:56.845Z,305.49
2019-01-04T09:31:56.785Z,305.52
2019-01-04T09:32:56.777Z,304.77
2019-01-04T09:33:57.134Z,305.76
2019-01-04T09:34:56.775Z,305.69
2019-01-04T09:35:56.722Z,304.99
2019-01-04T09:36:56.708Z,305.26
2019-01-04T09:37:56.721Z,304.84
2019-01-04T09:38:56.695Z,304.99
2019-01-04T09:39:56.653Z,304.48
2019-01-04T09:40:57.610Z,305.84
2019-01-04T09:41:56.635Z,304.74
2019-01-04T09:42:56.659Z,306.27
2019-01-04T09:43:56.670Z,305.42
2019-01-04T09:44:56.649Z,305.75
2019-01-04T09:45:56.590Z,305.43
2019-01-04T09:46:56.590Z,304.97
2019-01-04T09:47:57.139Z,305.45
2019-01-04T09:48:56.604Z,305.41
2019-01-04T09:50:03.769Z,305.47
2019-01-04T09:50:56.598Z,305.33
2019-01-04T09:51:56.729Z,305.26
2019-01-04T09:52:56.602Z,305.42
2019-01-04T09:53:56.599Z,305.38
2019-01-04T09:54:56.560Z,305.75
2019-01-04T09:55:56.480Z,305.57
2019-01-04T09:56:56.483Z,305.80
2019-01-04T09:57:56.537Z,305.60
2019-01-04T09:58:56.464Z,305.42
2019-01-04T09:59:56.474Z,305.43
2019-01-04T10:00:56.473Z,305.14
2019-01-04T10:01:56.427Z,305.27
2019-01-04T10:02:56.464Z,304.92
2019-01-04T10:03:56.424Z,304.90
2019-01-04T10:04:56.403Z,305.34
2019-01-04T10:05:56.381Z,305.42
2019-01-04T10:06:56.399Z,305.15
2019-01-04T10:07:56.419Z,304.82
2019-01-04T10:08:56.355Z,305.17
2019-01-04T10:09:56.361Z,304.59
2019-01-04T10:10:56.355Z,305.64
2019-01-04T10:11:56.327Z,305.66
2019-01-04T10:12:56.388Z,305.46
2019-01-04T10:13:56.322Z,305.18
2019-01-04T10:14:56.299Z,305.16
2019-01-04T10:15:56.287Z,305.35
2019-01-04T10:16:57.181Z,305.36
2019-01-04T10:17:57.650Z,304.49
2019-01-04T10:18:56.801Z,305.10
2019-01-04T10:19:56.234Z,304.99
2019-01-04T10:20:56.285Z,305.33
2019-01-04T10:21:56.211Z,305.29
2019-01-04T10:22:56.229Z,305.21
2019-01-04T10:23:56.251Z,305.66
2019-01-04T10:24:56.232Z,305.84
2019-01-04T10:25:56.228Z,305.54
2019-01-04T10:26:56.188Z,305.22
2019-01-04T10:27:56.227Z,305.14
2019-01-04T10:28:56.185Z,304.75
2019-01-04T10:29:56.141Z,304.60
2019-01-04T10:30:56.689Z,304.94
2019-01-04T10:31:56.156Z,304.65
2019-01-04T10:32:56.131Z,304.10
2019-01-04T10:33:56.170Z,304.79
2019-01-04T10:34:56.106Z,304.82
2019-01-04T10:35:56.104Z,304.69
2019-01-04T10:36:56.098Z,304.89
2019-01-04T10:37:56.116Z,304.58
2019-01-04T10:38:56.118Z,304.48
2019-01-04T10:39:56.104Z,304.53
2019-01-04T10:40:56.973Z,304.00
2019-01-04T10:41:56.050Z,304.92
2019-01-04T10:42:56.558Z,304.57
2019-01-04T10:43:56.032Z,304.86
2019-01-04T10:44:56.055Z,304.21
2019-01-04T10:45:56.039Z,304.70
2019-01-04T10:47:03.761Z,304.85
2019-01-04T10:47:55.976Z,304.27
2019-01-04T10:48:55.972Z,305.29
2019-01-04T10:49:55.922Z,304.61
2019-01-04T10:50:55.930Z,304.04
2019-01-04T10:51:55.918Z,304.52
2019-01-04T10:52:55.919Z,304.18
2019-01-04T10:53:55.879Z,304.08
2019-01-04T10:54:55.946Z,304.33
2019-01-04T10:55:55.858Z,304.46
2019-01-04T10:56:55.848Z,304.71
2019-01-04T10:57:55.854Z,304.24
2019-01-04T10:58:58.674Z,304.33
2019-01-04T10:59:58.685Z,304.23
2019-01-04T11:00:55.867Z,304.20
2019-01-04T11:01:55.804Z,303.43
2019-01-04T11:02:55.807Z,305.01
2019-01-04T11:03:55.801Z,304.28
2019-01-04T11:04:55.751Z,304.47
2019-01-04T11:05:55.757Z,304.05
2019-01-04T11:06:55.764Z,304.27
2019-01-04T11:07:55.741Z,304.23
2019-01-04T11:08:55.744Z,303.49
2019-01-04T11:09:55.749Z,304.39
2019-01-04T11:10:55.776Z,304.08
2019-01-04T11:11:55.818Z,303.82
2019-01-04T11:12:55.703Z,303.97
2019-01-04T11:13:55.697Z,304.47
2019-01-04T11:14:55.742Z,304.33
2019-01-04T11:15:55.751Z,304.60
2019-01-04T11:16:56.788Z,303.93
2019-01-04T11:18:03.403Z,304.32
2019-01-04T11:19:02.739Z,304.31
2019-01-04T11:20:02.744Z,304.37
2019-01-04T11:22:13.560Z,302.59
2019-01-04T11:23:23.598Z,303.71
2019-01-04T11:24:12.849Z,303.95
2019-01-04T11:25:12.723Z,304.48
2019-01-04T11:26:13.461Z,303.55
2019-01-04T11:27:12.837Z,303.59
2019-01-04T11:28:12.659Z,304.07
2019-01-04T11:29:12.624Z,304.17
2019-01-04T11:30:12.633Z,304.10
2019-01-04T11:31:12.654Z,304.28
2019-01-04T11:32:12.753Z,304.02
2019-01-04T11:33:12.589Z,303.75
2019-01-04T11:34:12.585Z,303.82
2019-01-04T11:35:12.567Z,303.62
2019-01-04T11:36:12.573Z,303.73
2019-01-04T11:37:12.581Z,304.34
2019-01-04T11:38:12.589Z,304.10
2019-01-04T11:39:12.537Z,303.78
2019-01-04T11:40:12.540Z,303.98
2019-01-04T11:41:12.612Z,303.91
2019-01-04T11:42:15.220Z,304.05
2019-01-04T11:43:12.556Z,303.61
2019-01-04T11:44:12.492Z,304.10
2019-01-04T11:45:32.434Z,302.82
2019-01-04T11:46:12.966Z,304.11
2019-01-04T11:47:12.700Z,303.69
2019-01-04T11:48:13.330Z,303.33
2019-01-04T11:49:13.361Z,304.30
2019-01-04T11:50:12.483Z,303.97
2019-01-04T11:51:12.429Z,304.01
2019-01-04T11:52:12.395Z,303.87
2019-01-04T11:53:12.500Z,303.93
2019-01-04T11:54:12.420Z,303.86
2019-01-04T11:55:12.402Z,303.57
2019-01-04T11:56:12.349Z,303.67
2019-01-04T11:57:13.296Z,303.38
2019-01-04T11:58:14.241Z,303.96
2019-01-04T11:59:12.531Z,303.07
2019-01-04T12:00:12.375Z,303.36
2019-01-04T12:01:15.688Z,303.81
2019-01-04T12:02:12.766Z,303.15
2019-01-04T12:03:14.475Z,303.40
2019-01-04T12:04:13.147Z,303.38
2019-01-04T12:05:12.267Z,303.54
2019-01-04T12:06:15.138Z,303.10
2019-01-04T12:07:12.256Z,303.25
2019-01-04T12:08:12.263Z,303.03
2019-01-04T12:09:12.222Z,303.30
2019-01-04T12:10:12.427Z,303.49
2019-01-04T12:11:12.187Z,303.97
2019-01-04T12:12:13.139Z,303.11
2019-01-04T12:13:12.184Z,303.61
2019-01-04T12:14:12.200Z,303.29
2019-01-04T12:15:12.141Z,303.44
2019-01-04T12:16:12.144Z,303.91
2019-01-04T12:17:12.130Z,303.72
2019-01-04T12:18:13.058Z,303.24
2019-01-04T12:19:13.066Z,303.56
2019-01-04T12:20:12.109Z,303.58
2019-01-04T12:21:19.681Z,303.58
2019-01-04T12:23:32.074Z,302.79
2019-01-04T12:26:11.748Z,303.47
2019-01-04T12:28:22.156Z,302.29
2019-01-04T12:29:30.165Z,303.95
2019-01-04T12:30:29.799Z,303.66
2019-01-04T12:31:30.054Z,303.55
2019-01-04T12:32:31.775Z,303.45
2019-01-04T12:33:30.157Z,303.77
2019-01-04T12:34:31.059Z,303.82
2019-01-04T12:35:32.704Z,304.12
2019-01-04T12:36:22.589Z,304.81
2019-01-04T12:37:30.382Z,304.19
2019-01-04T12:38:37.728Z,303.96
2019-01-04T12:39:22.557Z,303.99